Time;durP1;ratioP1;P1;durP2;ratioP2;P2;SDS_P1;SDS_P2;PMS_P1;PMS_P2;Temp;Humidity;BMP_temperature;BMP_pressure;BME280_temperature;BME280_humidity;BME280_pressure;Samples;Min_cycle;Max_cycle;Signal;HPM_P1;HPM_P2
2022/03/09 00:00:34;;;;;;;0.30;0.30;;;0.40;61.70;;;;;;4997393;28;20439;-85
2022/03/09 00:03:01;;;;;;;0.63;0.63;;;0.50;62.10;;;;;;4997254;28;20484;-86
2022/03/09 00:05:28;;;;;;;0.77;0.77;;;0.60;60.90;;;;;;4997235;28;20825;-86
2022/03/09 00:07:55;;;;;;;0.40;0.40;;;0.60;60.50;;;;;;4997086;28;20472;-86
2022/03/09 00:10:21;;;;;;;1.03;0.60;;;0.80;60.00;;;;;;4997157;28;21043;-85
2022/03/09 00:12:48;;;;;;;2.40;0.60;;;0.80;60.40;;;;;;4997085;28;20444;-86
2022/03/09 00:15:15;;;;;;;0.47;0.37;;;0.70;61.00;;;;;;4996956;28;20452;-86
2022/03/09 00:17:43;;;;;;;0.30;0.30;;;0.70;62.80;;;;;;4996867;28;20476;-86
2022/03/09 00:20:10;;;;;;;0.30;0.30;;;0.70;63.00;;;;;;4996849;28;20456;-85
2022/03/09 00:22:37;;;;;;;0.30;0.30;;;0.70;61.50;;;;;;4996657;28;20475;-86
2022/03/09 00:25:05;;;;;;;0.30;0.30;;;0.70;62.20;;;;;;4996668;28;20452;-86
2022/03/09 00:27:32;;;;;;;0.30;0.30;;;0.60;63.50;;;;;;4996816;28;20468;-86
2022/03/09 00:29:59;;;;;;;0.40;0.40;;;0.50;63.70;;;;;;4996656;28;20445;-86
2022/03/09 00:32:26;;;;;;;0.30;0.30;;;0.50;64.80;;;;;;4996472;28;20948;-86
2022/03/09 00:34:54;;;;;;;0.70;0.70;;;0.40;64.20;;;;;;4996435;28;20437;-85
2022/03/09 00:37:21;;;;;;;3.13;1.10;;;0.40;63.40;;;;;;4996422;28;21057;-86
2022/03/09 00:39:48;;;;;;;0.50;0.37;;;0.40;63.40;;;;;;4996607;28;20457;-85
2022/03/09 00:42:14;;;;;;;0.30;0.30;;;0.30;64.00;;;;;;4996284;28;20485;-85
2022/03/09 00:44:41;;;;;;;0.30;0.30;;;0.30;65.00;;;;;;4996193;28;20448;-86
2022/03/09 00:47:08;;;;;;;0.77;0.60;;;0.20;66.50;;;;;;4995939;28;20471;-85
2022/03/09 00:49:35;;;;;;;0.30;0.30;;;0.20;66.90;;;;;;4996182;28;20421;-85
2022/03/09 00:52:03;;;;;;;0.30;0.30;;;0.10;66.70;;;;;;4996334;28;20449;-85
2022/03/09 00:54:30;;;;;;;0.30;0.30;;;0.00;66.20;;;;;;4996368;28;20449;-85
2022/03/09 00:56:57;;;;;;;0.30;0.30;;;0.00;66.90;;;;;;4996166;28;20456;-85
2022/03/09 00:59:24;;;;;;;1.33;1.23;;;0.00;67.20;;;;;;4996228;28;20468;-85
2022/03/09 01:01:50;;;;;;;0.30;0.30;;;-0.10;66.80;;;;;;4996071;28;20463;-85
2022/03/09 01:04:17;;;;;;;0.30;0.30;;;-0.20;66.80;;;;;;4996968;28;20960;-85
2022/03/09 01:06:44;;;;;;;0.30;0.30;;;-0.20;67.10;;;;;;4995706;28;20807;-85
2022/03/09 01:09:12;;;;;;;0.30;0.30;;;-0.30;66.80;;;;;;4994859;28;20437;-85
2022/03/09 01:11:39;;;;;;;1.43;1.27;;;-0.30;66.40;;;;;;4995923;28;20453;-85
2022/03/09 01:14:06;;;;;;;0.30;0.30;;;-0.30;66.60;;;;;;4995942;28;20449;-85
2022/03/09 01:16:33;;;;;;;0.80;0.50;;;-0.40;66.80;;;;;;4995864;28;20461;-85
2022/03/09 01:19:00;;;;;;;0.33;0.33;;;-0.40;66.80;;;;;;4995495;28;20467;-85
2022/03/09 01:21:27;;;;;;;0.30;0.30;;;-0.40;67.70;;;;;;4995518;28;20793;-85
2022/03/09 01:23:53;;;;;;;0.67;0.67;;;-0.40;68.00;;;;;;4995371;28;20810;-85
2022/03/09 01:26:21;;;;;;;0.40;0.40;;;-0.40;68.20;;;;;;4995978;28;20456;-85
2022/03/09 01:28:48;;;;;;;0.33;0.33;;;-0.50;67.80;;;;;;4995479;28;20476;-85
2022/03/09 01:31:15;;;;;;;0.30;0.30;;;-0.50;68.10;;;;;;4995527;28;20436;-85
2022/03/09 01:33:42;;;;;;;0.30;0.30;;;-0.50;68.80;;;;;;4995511;28;20443;-84
2022/03/09 01:36:08;;;;;;;0.30;0.30;;;-0.50;68.40;;;;;;4995618;28;20456;-85
2022/03/09 01:38:35;;;;;;;3.20;0.63;;;-0.60;68.40;;;;;;4995254;28;20495;-85
2022/03/09 01:41:02;;;;;;;0.30;0.30;;;-0.60;68.70;;;;;;4995216;28;20798;-84
2022/03/09 01:43:30;;;;;;;0.30;0.30;;;-0.60;68.60;;;;;;4995212;28;20491;-84
2022/03/09 01:45:57;;;;;;;0.40;0.40;;;-0.70;68.70;;;;;;4994960;28;20485;-85
2022/03/09 01:48:23;;;;;;;0.30;0.30;;;-0.70;68.70;;;;;;4994835;28;20496;-84
2022/03/09 01:50:50;;;;;;;0.33;0.33;;;-0.70;68.30;;;;;;4995198;28;20448;-85
2022/03/09 01:53:18;;;;;;;1.53;0.93;;;-0.70;69.00;;;;;;4995079;28;20424;-84
2022/03/09 01:55:45;;;;;;;0.50;0.50;;;-0.70;69.20;;;;;;4994899;28;20825;-84
2022/03/09 01:58:13;;;;;;;0.30;0.30;;;-0.60;69.60;;;;;;4995059;28;20548;-84
2022/03/09 02:00:41;;;;;;;0.30;0.30;;;-0.60;70.50;;;;;;4994936;28;20449;-84
2022/03/09 02:03:08;;;;;;;0.30;0.20;;;-0.50;69.80;;;;;;4994791;28;20854;-84
2022/03/09 02:05:35;;;;;;;0.30;0.30;;;-0.50;69.40;;;;;;4994806;28;20442;-84
2022/03/09 02:10:47;;;;;;;1.13;1.13;;;-0.60;69.70;;;;;;4994928;28;20485;-84
2022/03/09 02:13:14;;;;;;;0.30;0.30;;;-0.60;69.10;;;;;;4994743;28;20448;-84
2022/03/09 02:15:44;;;;;;;0.40;0.40;;;-0.50;70.00;;;;;;4994648;28;20461;-85
2022/03/09 02:18:11;;;;;;;0.30;0.30;;;-0.50;70.30;;;;;;4994645;28;20443;-84
2022/03/09 02:20:44;;;;;;;0.40;0.40;;;-0.60;70.20;;;;;;4994355;28;20458;-84
2022/03/09 02:23:12;;;;;;;1.93;1.83;;;-0.50;70.40;;;;;;4994339;28;21042;-84
2022/03/09 02:25:39;;;;;;;0.70;0.70;;;-0.50;71.10;;;;;;4994558;28;20449;-84
2022/03/09 02:28:06;;;;;;;0.37;0.37;;;-0.60;71.50;;;;;;4994437;28;20479;-84
2022/03/09 02:30:33;;;;;;;0.30;0.30;;;-0.60;71.10;;;;;;4994201;28;20428;-84
2022/03/09 02:32:59;;;;;;;0.30;0.30;;;-0.60;71.40;;;;;;4994425;28;20449;-84
2022/03/09 02:35:26;;;;;;;0.30;0.30;;;-0.60;70.90;;;;;;4994167;28;20440;-84
2022/03/09 02:37:53;;;;;;;0.30;0.30;;;-0.60;70.40;;;;;;4994277;28;20468;-84
2022/03/09 02:40:21;;;;;;;0.30;0.30;;;-0.60;70.40;;;;;;4994191;28;20939;-85
2022/03/09 02:42:48;;;;;;;0.30;0.30;;;-0.60;70.70;;;;;;4993976;28;20491;-84
2022/03/09 02:45:15;;;;;;;0.40;0.40;;;-0.60;71.20;;;;;;4994266;28;20430;-84
2022/03/09 02:47:43;;;;;;;0.47;0.47;;;-0.70;70.90;;;;;;4993861;28;20473;-84
2022/03/09 02:50:10;;;;;;;0.30;0.20;;;-0.70;70.90;;;;;;4994223;28;20449;-84
2022/03/09 02:52:41;;;;;;;0.40;0.40;;;-0.70;71.00;;;;;;4993895;28;20451;-84
2022/03/09 02:55:09;;;;;;;0.30;0.30;;;-0.70;70.70;;;;;;4994083;28;20461;-84
2022/03/09 02:57:37;;;;;;;0.50;0.50;;;-0.70;69.60;;;;;;4993912;28;20484;-84
2022/03/09 03:00:07;;;;;;;0.30;0.20;;;-0.60;69.10;;;;;;4994134;28;20447;-84
2022/03/09 03:02:34;;;;;;;0.43;0.43;;;-0.70;71.00;;;;;;4994203;28;20504;-84
2022/03/09 03:05:01;;;;;;;0.30;0.30;;;-0.60;70.80;;;;;;4993724;28;20944;-84
2022/03/09 03:07:29;;;;;;;0.30;0.30;;;-0.60;72.00;;;;;;4993568;28;20968;-84
2022/03/09 03:09:55;;;;;;;0.30;0.20;;;-0.60;72.30;;;;;;4993671;28;21031;-84
2022/03/09 03:12:22;;;;;;;0.40;0.40;;;-0.70;72.30;;;;;;4993619;28;20952;-85
2022/03/09 03:14:51;;;;;;;0.77;0.77;;;-0.70;72.30;;;;;;4993660;28;20448;-84
2022/03/09 03:17:18;;;;;;;0.60;0.60;;;-0.80;73.40;;;;;;4993515;28;21013;-84
2022/03/09 03:19:44;;;;;;;0.30;0.30;;;-0.80;72.90;;;;;;4993899;28;20474;-85
2022/03/09 03:22:11;;;;;;;0.30;0.30;;;-0.90;72.60;;;;;;4993773;28;20480;-84
2022/03/09 03:24:38;;;;;;;0.47;0.47;;;-0.90;72.60;;;;;;4993853;28;20471;-84
2022/03/09 03:27:05;;;;;;;0.40;0.40;;;-1.00;72.80;;;;;;4994151;28;20484;-84
2022/03/09 03:29:31;;;;;;;0.30;0.30;;;-1.00;73.50;;;;;;4993515;28;20412;-84
2022/03/09 03:31:59;;;;;;;0.30;0.30;;;-1.10;73.80;;;;;;4994250;28;20452;-84
2022/03/09 03:34:26;;;;;;;0.30;0.30;;;-1.20;74.10;;;;;;4997767;28;20456;-84
2022/03/09 03:36:53;;;;;;;0.30;0.30;;;-1.30;74.10;;;;;;4997486;28;20432;-84
2022/03/09 03:39:20;;;;;;;0.30;0.30;;;-1.30;74.60;;;;;;4998035;28;20777;-84
2022/03/09 03:41:47;;;;;;;0.30;0.30;;;-1.30;75.10;;;;;;4997574;28;20460;-84
2022/03/09 03:44:13;;;;;;;0.33;0.33;;;-1.30;74.70;;;;;;4997411;28;20488;-84
2022/03/09 03:46:41;;;;;;;0.30;0.30;;;-1.40;74.60;;;;;;4997702;28;20448;-84
2022/03/09 03:49:09;;;;;;;0.63;0.63;;;-1.50;75.40;;;;;;4997008;28;20901;-84
2022/03/09 03:51:36;;;;;;;0.30;0.30;;;-1.50;75.70;;;;;;4996970;28;20947;-84
2022/03/09 03:54:02;;;;;;;0.30;0.30;;;-1.50;75.90;;;;;;4996959;28;20449;-84
2022/03/09 03:56:29;;;;;;;0.30;0.30;;;-1.50;76.00;;;;;;4997179;28;20922;-84
2022/03/09 03:58:56;;;;;;;0.30;0.30;;;-1.50;76.20;;;;;;4997130;28;20447;-84
2022/03/09 04:01:23;;;;;;;0.30;0.30;;;-1.60;76.10;;;;;;4996920;28;20444;-84
2022/03/09 04:03:49;;;;;;;0.30;0.30;;;-1.60;76.50;;;;;;4996814;28;20503;-84
2022/03/09 04:06:18;;;;;;;0.57;0.57;;;-1.60;77.40;;;;;;4996727;28;20775;-84
2022/03/09 04:08:44;;;;;;;0.30;0.30;;;-1.50;76.50;;;;;;4996913;28;20867;-84
2022/03/09 04:11:11;;;;;;;0.67;0.67;;;-1.50;76.90;;;;;;4997068;28;20452;-84
2022/03/09 04:13:38;;;;;;;0.30;0.30;;;-1.50;76.50;;;;;;4996661;28;20790;-84
2022/03/09 04:16:05;;;;;;;0.93;0.93;;;-1.50;76.40;;;;;;4996991;28;20464;-84
2022/03/09 04:18:32;;;;;;;4.67;0.87;;;-1.50;75.90;;;;;;4996797;28;20471;-84
2022/03/09 04:20:59;;;;;;;0.30;0.30;;;-1.50;76.00;;;;;;4996863;28;20464;-85
2022/03/09 04:23:27;;;;;;;1.43;1.33;;;-1.50;76.20;;;;;;4996383;28;21002;-84
2022/03/09 04:25:54;;;;;;;0.30;0.30;;;-1.50;76.30;;;;;;4996774;28;20444;-84
2022/03/09 04:28:20;;;;;;;0.30;0.30;;;-1.50;76.50;;;;;;4996407;28;20468;-84
2022/03/09 04:30:47;;;;;;;0.30;0.30;;;-1.50;76.90;;;;;;4996677;28;20453;-84
2022/03/09 04:33:14;;;;;;;0.30;0.30;;;-1.50;77.00;;;;;;4996684;28;20448;-84
2022/03/09 04:35:41;;;;;;;0.30;0.20;;;-1.60;77.40;;;;;;4996264;28;20427;-84
2022/03/09 04:38:08;;;;;;;0.50;0.50;;;-1.60;78.60;;;;;;4996426;28;20511;-84
2022/03/09 04:40:36;;;;;;;0.60;0.60;;;-1.60;77.50;;;;;;4996286;28;20809;-84
2022/03/09 04:43:03;;;;;;;0.30;0.30;;;-1.60;77.80;;;;;;4995989;28;20480;-84
2022/03/09 04:45:29;;;;;;;0.50;0.50;;;-1.70;77.40;;;;;;4996395;28;20460;-84
2022/03/09 04:47:56;;;;;;;0.30;0.30;;;-1.70;77.40;;;;;;4995979;28;20519;-84
2022/03/09 04:50:23;;;;;;;0.77;0.77;;;-1.70;77.80;;;;;;4996031;28;20816;-84
2022/03/09 04:52:50;;;;;;;1.53;0.60;;;-1.70;77.70;;;;;;4995940;28;20441;-84
2022/03/09 04:55:16;;;;;;;0.30;0.30;;;-1.80;77.70;;;;;;4996193;28;20468;-84
2022/03/09 04:57:44;;;;;;;0.30;0.30;;;-1.70;77.10;;;;;;4996123;28;20491;-84
2022/03/09 05:00:12;;;;;;;0.30;0.30;;;-1.70;76.70;;;;;;4996124;28;20475;-84
2022/03/09 05:02:39;;;;;;;4.67;1.40;;;-1.70;76.00;;;;;;4995824;28;20954;-84
2022/03/09 05:05:07;;;;;;;0.40;0.40;;;-1.60;75.60;;;;;;4996094;28;20892;-84
2022/03/09 05:07:34;;;;;;;0.80;0.80;;;-1.60;76.60;;;;;;4995926;28;20954;-84
2022/03/09 05:10:01;;;;;;;0.30;0.30;;;-1.60;77.00;;;;;;4996085;28;20444;-84
2022/03/09 05:12:28;;;;;;;0.30;0.30;;;-1.60;76.90;;;;;;4997677;28;20543;-84
2022/03/09 05:14:56;;;;;;;0.57;0.57;;;-1.60;77.10;;;;;;4995851;28;20464;-84
2022/03/09 05:17:23;;;;;;;0.30;0.30;;;-1.60;77.30;;;;;;4995690;28;20500;-84
2022/03/09 05:19:50;;;;;;;0.30;0.30;;;-1.70;78.20;;;;;;4995668;28;20444;-84
2022/03/09 05:22:17;;;;;;;0.30;0.30;;;-1.70;78.50;;;;;;4995657;28;20452;-84
2022/03/09 05:24:43;;;;;;;0.30;0.30;;;-1.70;77.90;;;;;;4995518;28;20496;-84
2022/03/09 05:27:10;;;;;;;1.10;1.00;;;-1.70;77.50;;;;;;4995579;28;20468;-84
2022/03/09 05:29:37;;;;;;;0.30;0.30;;;-1.70;76.50;;;;;;4995137;28;20846;-84
2022/03/09 05:32:06;;;;;;;0.70;0.70;;;-1.70;76.20;;;;;;4995609;28;20817;-84
2022/03/09 05:34:33;;;;;;;0.30;0.30;;;-1.70;76.70;;;;;;4995371;28;20444;-85
2022/03/09 05:37:00;;;;;;;1.33;0.63;;;-1.70;76.10;;;;;;4995372;28;20899;-84
2022/03/09 05:39:26;;;;;;;0.40;0.40;;;-1.70;76.20;;;;;;4995758;28;20423;-84
2022/03/09 05:41:53;;;;;;;0.40;0.40;;;-1.70;76.00;;;;;;4995490;28;20455;-84
2022/03/09 05:44:20;;;;;;;0.30;0.30;;;-1.70;75.90;;;;;;4995347;28;20488;-84
2022/03/09 05:46:47;;;;;;;0.70;0.70;;;-1.70;76.50;;;;;;4994931;28;20440;-84
2022/03/09 05:49:15;;;;;;;0.93;0.77;;;-1.70;75.90;;;;;;4994850;28;20788;-84
2022/03/09 05:51:41;;;;;;;0.80;0.80;;;-1.70;76.70;;;;;;4995217;28;20444;-84
2022/03/09 05:54:08;;;;;;;0.30;0.30;;;-1.60;76.80;;;;;;4995737;28;20452;-84
2022/03/09 05:56:35;;;;;;;0.30;0.27;;;-1.60;77.90;;;;;;4994635;28;20419;-84
2022/03/09 05:59:02;;;;;;;0.40;0.40;;;-1.60;76.90;;;;;;4994656;28;20774;-84
2022/03/09 06:01:28;;;;;;;0.30;0.30;;;-1.60;77.60;;;;;;4995036;28;20445;-84
2022/03/09 06:03:55;;;;;;;0.70;0.70;;;-1.60;78.70;;;;;;4994512;28;20480;-84
2022/03/09 06:06:23;;;;;;;0.30;0.20;;;-1.60;78.70;;;;;;4994756;28;20463;-84
2022/03/09 06:08:50;;;;;;;0.30;0.20;;;-1.60;78.90;;;;;;4994726;28;20488;-84
2022/03/09 06:11:17;;;;;;;0.50;0.50;;;-1.70;77.80;;;;;;4994807;28;20478;-85
2022/03/09 06:13:43;;;;;;;0.30;0.30;;;-1.70;77.80;;;;;;4995044;28;20444;-84
2022/03/09 06:16:10;;;;;;;0.60;0.60;;;-1.60;79.10;;;;;;4995512;28;20452;-84
2022/03/09 06:18:37;;;;;;;0.33;0.33;;;-1.50;77.70;;;;;;4995383;28;20462;-84
2022/03/09 06:21:04;;;;;;;0.30;0.30;;;-1.00;78.50;;;;;;4994628;28;20455;-84
2022/03/09 06:23:32;;;;;;;0.30;0.30;;;0.00;77.00;;;;;;4994487;28;20484;-84
2022/03/09 06:26:00;;;;;;;0.30;0.20;;;1.10;73.60;;;;;;4994494;28;20450;-84
2022/03/09 06:28:27;;;;;;;1.00;0.90;;;2.10;70.30;;;;;;4994177;28;21053;-84
2022/03/09 06:30:53;;;;;;;0.30;0.30;;;2.50;68.20;;;;;;4995119;28;20471;-84
2022/03/09 06:33:20;;;;;;;0.63;0.63;;;2.40;67.40;;;;;;4994442;28;20453;-84
2022/03/09 06:35:47;;;;;;;2.10;1.23;;;2.00;67.40;;;;;;4994178;28;20978;-84
2022/03/09 06:38:14;;;;;;;0.33;0.33;;;1.50;67.60;;;;;;4993938;28;20994;-84
2022/03/09 06:40:43;;;;;;;0.50;0.43;;;1.10;68.10;;;;;;4994567;28;20452;-84
2022/03/09 06:43:10;;;;;;;0.37;0.37;;;0.70;69.40;;;;;;4994546;28;20821;-84
2022/03/09 06:45:36;;;;;;;0.40;0.30;;;0.50;70.30;;;;;;4994219;28;20467;-84
2022/03/09 06:48:05;;;;;;;0.47;0.47;;;0.30;70.60;;;;;;4993987;28;20488;-84
2022/03/09 06:50:32;;;;;;;0.30;0.30;;;0.20;71.50;;;;;;4993852;28;20944;-84
2022/03/09 06:52:58;;;;;;;0.47;0.47;;;0.10;71.60;;;;;;4994377;28;20453;-84
2022/03/09 06:55:25;;;;;;;0.30;0.30;;;0.10;71.60;;;;;;4994185;28;20452;-84
2022/03/09 06:57:53;;;;;;;0.30;0.30;;;0.00;70.90;;;;;;4994129;28;21010;-84
2022/03/09 07:00:20;;;;;;;1.17;1.17;;;0.00;71.40;;;;;;4994067;28;20459;-84
2022/03/09 07:02:47;;;;;;;0.30;0.30;;;0.10;71.60;;;;;;4994079;28;20452;-84
2022/03/09 07:05:14;;;;;;;0.40;0.40;;;0.10;71.50;;;;;;4994000;28;20484;-84
2022/03/09 07:07:41;;;;;;;1.53;0.87;;;0.00;71.50;;;;;;4993016;28;21010;-84
2022/03/09 07:10:11;;;;;;;0.30;0.30;;;0.00;71.20;;;;;;4994654;28;20798;-84
2022/03/09 07:12:39;;;;;;;0.30;0.30;;;0.00;71.80;;;;;;4993876;28;20543;-85
2022/03/09 07:15:08;;;;;;;0.70;0.70;;;0.00;71.70;;;;;;4994089;28;20456;-84
2022/03/09 07:17:35;;;;;;;0.40;0.40;;;0.00;71.50;;;;;;4993967;28;20555;-84
2022/03/09 07:20:02;;;;;;;0.40;0.40;;;0.00;72.40;;;;;;4993663;28;20440;-84
2022/03/09 07:22:28;;;;;;;0.30;0.30;;;0.00;72.50;;;;;;4993689;28;20944;-85
2022/03/09 07:24:55;;;;;;;0.30;0.30;;;0.10;72.60;;;;;;4993546;28;20480;-85
2022/03/09 07:27:22;;;;;;;0.30;0.30;;;0.10;71.90;;;;;;4993792;28;20550;-85
2022/03/09 07:29:49;;;;;;;0.30;0.30;;;0.10;72.00;;;;;;4993527;28;20971;-85
2022/03/09 07:32:17;;;;;;;0.30;0.30;;;0.20;71.80;;;;;;4993868;28;20457;-84
2022/03/09 07:34:44;;;;;;;0.80;0.80;;;0.20;72.60;;;;;;4993495;28;20452;-85
2022/03/09 07:37:10;;;;;;;0.50;0.50;;;0.30;72.00;;;;;;4993697;28;20468;-84
2022/03/09 07:39:38;;;;;;;0.30;0.30;;;0.30;71.50;;;;;;4994197;28;20441;-84
2022/03/09 07:42:05;;;;;;;0.30;0.30;;;0.40;71.80;;;;;;4993870;28;20432;-84
2022/03/09 07:44:32;;;;;;;0.33;0.33;;;0.40;71.90;;;;;;4993720;28;20460;-85
2022/03/09 07:46:59;;;;;;;0.40;0.40;;;0.50;72.10;;;;;;4993897;28;20806;-84
2022/03/09 07:49:27;;;;;;;0.47;0.47;;;0.50;71.20;;;;;;4994226;28;20424;-85
2022/03/09 07:51:54;;;;;;;0.30;0.30;;;0.70;71.00;;;;;;4993767;28;20428;-84
2022/03/09 07:54:21;;;;;;;1.23;1.13;;;0.70;70.70;;;;;;4993699;28;20431;-84
2022/03/09 07:56:49;;;;;;;0.30;0.30;;;0.80;70.80;;;;;;4993593;28;20437;-84
2022/03/09 07:59:16;;;;;;;0.63;0.63;;;0.90;70.20;;;;;;4993312;28;20456;-85
2022/03/09 08:01:43;;;;;;;1.60;1.33;;;1.00;70.20;;;;;;4993752;28;20449;-84
2022/03/09 08:04:10;;;;;;;0.30;0.30;;;1.00;70.50;;;;;;4993527;28;20485;-84
2022/03/09 08:06:40;;;;;;;0.30;0.30;;;1.10;70.20;;;;;;4993313;28;20948;-84
2022/03/09 08:09:07;;;;;;;0.50;0.50;;;1.20;70.00;;;;;;4993491;28;20480;-85
2022/03/09 08:11:34;;;;;;;0.30;0.30;;;1.30;69.50;;;;;;4993535;28;20448;-84
2022/03/09 08:14:01;;;;;;;0.30;0.30;;;1.40;69.30;;;;;;4993481;28;20536;-84
2022/03/09 08:16:28;;;;;;;0.30;0.30;;;1.50;68.70;;;;;;4993215;28;20441;-85
2022/03/09 08:18:54;;;;;;;0.43;0.43;;;1.70;68.60;;;;;;4994879;28;20472;-85
2022/03/09 08:21:21;;;;;;;0.80;0.80;;;1.80;68.60;;;;;;4997268;28;20461;-85
2022/03/09 08:23:49;;;;;;;0.43;0.43;;;1.80;68.40;;;;;;4996883;28;20487;-85
2022/03/09 08:26:16;;;;;;;0.40;0.40;;;2.00;68.20;;;;;;4996914;28;20456;-85
2022/03/09 08:28:43;;;;;;;0.60;0.60;;;2.10;68.50;;;;;;4996959;28;20476;-85
2022/03/09 08:31:10;;;;;;;0.73;0.73;;;2.10;68.60;;;;;;4996622;28;20437;-85
2022/03/09 08:33:37;;;;;;;0.93;0.93;;;2.30;68.50;;;;;;4996850;28;20451;-85
2022/03/09 08:36:04;;;;;;;0.30;0.20;;;2.50;68.80;;;;;;4996477;28;20940;-85
2022/03/09 08:38:31;;;;;;;0.30;0.30;;;2.70;68.20;;;;;;4997077;28;20812;-87
2022/03/09 08:40:59;;;;;;;1.07;0.70;;;2.80;68.60;;;;;;4996492;28;20795;-85
2022/03/09 08:43:26;;;;;;;0.50;0.50;;;3.00;67.50;;;;;;4996458;28;20452;-85
2022/03/09 08:45:53;;;;;;;1.17;1.17;;;3.20;67.50;;;;;;4996508;28;20480;-86
2022/03/09 08:48:19;;;;;;;1.90;0.70;;;3.40;67.00;;;;;;4996133;28;20491;-86
2022/03/09 08:50:46;;;;;;;1.70;0.70;;;3.60;66.50;;;;;;4996392;28;20457;-86
2022/03/09 08:53:13;;;;;;;0.57;0.50;;;3.80;66.60;;;;;;4996510;28;20455;-86
2022/03/09 08:55:40;;;;;;;0.40;0.40;;;4.10;65.20;;;;;;4996475;28;20463;-86
2022/03/09 08:58:08;;;;;;;0.40;0.40;;;4.30;63.20;;;;;;4996298;28;20979;-86
2022/03/09 09:00:35;;;;;;;0.80;0.43;;;4.60;62.50;;;;;;4996298;28;20459;-85
2022/03/09 09:03:01;;;;;;;0.37;0.37;;;4.90;61.30;;;;;;4996298;28;20453;-86
2022/03/09 09:05:28;;;;;;;0.33;0.30;;;5.40;60.80;;;;;;4996082;28;20586;-86
2022/03/09 09:07:55;;;;;;;1.23;1.23;;;5.80;59.70;;;;;;4995728;28;20464;-85
2022/03/09 09:10:22;;;;;;;1.30;0.73;;;6.50;59.10;;;;;;4996030;28;20550;-86
2022/03/09 09:12:50;;;;;;;1.60;1.50;;;7.60;57.00;;;;;;4996080;28;20452;-86
2022/03/09 09:15:19;;;;;;;0.93;0.93;;;9.00;55.30;;;;;;4995953;28;20445;-86
2022/03/09 09:17:46;;;;;;;0.40;0.40;;;10.20;50.30;;;;;;4996778;28;20519;-86
2022/03/09 09:20:13;;;;;;;2.07;0.97;;;11.60;49.90;;;;;;4995611;28;20417;-86
2022/03/09 09:22:42;;;;;;;0.67;0.47;;;12.70;46.40;;;;;;4996561;28;20441;-86
2022/03/09 09:25:11;;;;;;;0.93;0.60;;;13.70;45.80;;;;;;4996590;28;20461;-86
2022/03/09 09:27:38;;;;;;;2.03;1.23;;;14.80;42.80;;;;;;4996306;28;20452;-87
2022/03/09 09:30:06;;;;;;;2.40;0.77;;;16.00;40.60;;;;;;4994913;28;20441;-87
2022/03/09 09:32:34;;;;;;;1.37;0.70;;;17.00;37.50;;;;;;4995768;28;20428;-86
2022/03/09 09:35:01;;;;;;;2.23;0.90;;;17.90;36.40;;;;;;4995891;28;20433;-86
2022/03/09 09:37:28;;;;;;;1.53;1.10;;;18.30;35.50;;;;;;4995779;28;20476;-86
2022/03/09 09:39:54;;;;;;;2.00;1.20;;;19.10;34.40;;;;;;4995547;28;20423;-86
2022/03/09 09:42:30;;;;;;;2.77;1.50;;;19.40;33.20;;;;;;4995795;28;20444;-87
2022/03/09 09:44:57;;;;;;;1.63;1.13;;;20.10;33.00;;;;;;4995259;28;20978;-86
2022/03/09 09:47:24;;;;;;;2.28;1.45;;;20.70;32.70;;;;;;4995180;28;20233;-87
2022/03/09 09:49:53;;;;;;;2.72;1.85;;;21.60;32.30;;;;;;4995455;28;20636;-87
2022/03/09 09:52:20;;;;;;;3.50;1.95;;;21.80;30.60;;;;;;4995358;28;20205;-86
2022/03/09 09:54:49;;;;;;;3.75;1.80;;;21.70;30.50;;;;;;4995439;28;20632;-87
2022/03/09 09:57:16;;;;;;;4.90;1.95;;;21.60;30.90;;;;;;4995461;28;20233;-86
2022/03/09 09:59:44;;;;;;;2.58;1.50;;;21.30;30.40;;;;;;4994993;28;20197;-86
2022/03/09 10:02:12;;;;;;;2.85;1.85;;;21.10;30.80;;;;;;4995452;28;20205;-86
2022/03/09 10:04:40;;;;;;;4.25;2.10;;;21.10;30.00;;;;;;4994978;28;20228;-86
2022/03/09 10:07:08;;;;;;;5.07;2.00;;;20.80;29.90;;;;;;4994775;28;20711;-86
2022/03/09 10:09:36;;;;;;;3.40;1.48;;;20.70;30.60;;;;;;4994990;28;20189;-86
2022/03/09 10:12:04;;;;;;;6.93;2.60;;;20.40;29.90;;;;;;4995100;28;20590;-86
2022/03/09 10:14:46;;;;;;;2.20;1.37;;;20.10;31.50;;;;;;4995210;28;20217;-87
2022/03/09 10:17:14;;;;;;;3.20;1.60;;;20.40;31.10;;;;;;4995172;28;20595;-86
2022/03/09 10:19:44;;;;;;;2.67;1.57;;;20.30;29.20;;;;;;4994999;28;20265;-86
2022/03/09 10:22:26;;;;;;;2.53;1.83;;;20.30;31.40;;;;;;4995011;28;20197;-87
2022/03/09 10:24:55;;;;;;;4.43;1.47;;;20.40;30.10;;;;;;4995200;28;20209;-86
2022/03/09 10:27:37;;;;;;;1.80;1.33;;;20.20;29.70;;;;;;4994823;28;20229;-86
2022/03/09 10:30:06;;;;;;;1.37;1.10;;;19.90;28.90;;;;;;4995003;28;20648;-86
2022/03/09 10:32:43;;;;;;;2.83;1.73;;;20.20;29.10;;;;;;4994845;28;20777;-86
2022/03/09 10:35:11;;;;;;;2.97;1.83;;;20.60;28.90;;;;;;4994704;28;20445;-86
2022/03/09 10:37:43;;;;;;;4.83;2.20;;;21.60;28.60;;;;;;4994582;28;20503;-86
2022/03/09 10:40:12;;;;;;;5.10;1.50;;;22.90;27.70;;;;;;4994658;28;20447;-86
2022/03/09 10:42:39;;;;;;;4.18;1.63;;;23.60;27.00;;;;;;4994528;28;20200;-86
2022/03/09 10:45:08;;;;;;;1.88;1.35;;;23.70;26.00;;;;;;4994291;28;20216;-87
2022/03/09 10:47:36;;;;;;;5.13;1.67;;;24.10;25.90;;;;;;4994262;28;20797;-86
2022/03/09 10:50:20;;;;;;;1.50;1.40;;;25.20;25.80;;;;;;4994669;28;20199;-86
2022/03/09 10:52:53;;;;;;;3.53;1.80;;;26.20;23.90;;;;;;4994400;28;20283;-86
2022/03/09 10:55:26;;;;;;;2.90;1.52;;;26.20;24.20;;;;;;4994045;28;20196;-86
2022/03/09 10:57:53;;;;;;;3.08;1.35;;;26.10;23.40;;;;;;4993894;28;20230;-86
2022/03/09 11:00:36;;;;;;;3.75;2.10;;;26.40;23.80;;;;;;4993921;28;20204;-87
2022/03/09 11:03:07;;;;;;;8.05;2.55;;;26.70;23.80;;;;;;4994157;28;20198;-86
2022/03/09 11:05:35;;;;;;;2.97;1.73;;;26.20;23.00;;;;;;4994154;28;20238;-86
2022/03/09 11:08:04;;;;;;;2.70;1.95;;;25.80;23.70;;;;;;4993722;28;20241;-86
2022/03/09 11:10:31;;;;;;;3.88;2.45;;;25.60;22.80;;;;;;4993753;28;20651;-86
2022/03/09 11:12:58;;;;;;;4.63;2.10;;;23.80;23.90;;;;;;4994056;28;20189;-86
2022/03/09 11:15:26;;;;;;;2.13;1.63;;;22.70;24.40;;;;;;4994056;28;20637;-86
2022/03/09 11:17:54;;;;;;;2.35;1.48;;;21.30;25.10;;;;;;4994054;28;20621;-86
2022/03/09 11:20:21;;;;;;;2.72;1.50;;;19.90;25.60;;;;;;4993971;28;20196;-86
2022/03/09 11:22:48;;;;;;;1.73;1.40;;;18.70;25.30;;;;;;4993896;28;20192;-86
2022/03/09 11:25:16;;;;;;;2.50;2.03;;;17.60;26.40;;;;;;4993648;28;20845;-86
2022/03/09 11:27:45;;;;;;;3.10;1.57;;;16.80;27.00;;;;;;4993778;28;20464;-86
2022/03/09 11:30:24;;;;;;;3.50;1.93;;;16.20;27.50;;;;;;4993851;28;20817;-86
2022/03/09 11:32:51;;;;;;;2.70;1.90;;;15.70;27.00;;;;;;4993866;28;20467;-86
2022/03/09 11:35:38;;;;;;;6.07;1.90;;;15.00;27.70;;;;;;4993855;28;20480;-86
2022/03/09 11:38:38;;;;;;;4.57;1.77;;;14.60;28.30;;;;;;4993913;28;20472;-86
2022/03/09 11:41:23;;;;;;;4.87;1.53;;;14.40;29.80;;;;;;4993954;28;20421;-86
2022/03/09 11:43:50;;;;;;;3.30;1.30;;;14.20;28.20;;;;;;4993872;28;20916;-86
2022/03/09 11:46:18;;;;;;;2.13;0.80;;;14.10;27.70;;;;;;4993899;28;20495;-86
2022/03/09 11:48:56;;;;;;;1.60;0.70;;;13.80;28.50;;;;;;4993539;28;20922;-86
2022/03/09 11:51:24;;;;;;;5.03;1.00;;;13.70;28.40;;;;;;4993847;28;21026;-86
2022/03/09 11:53:53;;;;;;;1.10;0.80;;;13.70;27.20;;;;;;4995442;28;20459;-86
2022/03/09 11:56:37;;;;;;;2.93;0.90;;;13.50;28.30;;;;;;4997379;28;20803;-86
2022/03/09 11:59:15;;;;;;;2.00;0.70;;;13.40;27.80;;;;;;4997468;28;20471;-81
2022/03/09 12:02:24;;;;;;;2.07;1.10;;;13.20;27.40;;;;;;4997025;28;20908;-84
2022/03/09 12:04:56;;;;;;;1.30;0.83;;;13.00;27.20;;;;;;4995627;28;20467;-83
2022/03/09 12:07:46;;;;;;;4.27;1.03;;;12.70;28.20;;;;;;4997030;28;21002;-83
2022/03/09 12:10:13;;;;;;;1.27;0.80;;;12.60;27.70;;;;;;4997239;28;20432;-83
2022/03/09 12:13:18;;;;;;;6.00;0.97;;;12.50;28.40;;;;;;4996974;28;20471;-84
2022/03/09 12:16:22;;;;;;;2.13;0.93;;;12.30;27.80;;;;;;4997609;28;20884;-85
2022/03/09 12:18:51;;;;;;;0.80;0.70;;;11.90;27.70;;;;;;4996875;28;20825;-83
2022/03/09 12:21:20;;;;;;;1.07;1.07;;;11.80;29.00;;;;;;4996835;28;20444;-83
2022/03/09 12:24:29;;;;;;;1.33;0.80;;;11.90;29.20;;;;;;4996797;28;20461;-83
2022/03/09 12:26:56;;;;;;;0.77;0.77;;;11.80;28.80;;;;;;4996516;28;20464;-83
2022/03/09 12:29:51;;;;;;;5.00;0.67;;;11.80;29.40;;;;;;4996724;28;20433;-83
2022/03/09 12:32:21;;;;;;;1.73;0.43;;;11.80;29.50;;;;;;4951171;28;20456;-83
2022/03/09 12:34:49;;;;;;;3.17;1.20;;;11.60;29.80;;;;;;4996677;28;20535;-83
2022/03/09 12:37:18;;;;;;;0.93;0.70;;;11.60;33.30;;;;;;4996323;28;20456;-83
2022/03/09 12:39:50;;;;;;;2.43;0.87;;;11.40;34.10;;;;;;4996400;28;20429;-83
2022/03/09 12:42:18;;;;;;;1.27;0.80;;;11.30;35.20;;;;;;4996517;28;20432;-84
2022/03/09 12:44:45;;;;;;;1.50;0.50;;;11.20;36.00;;;;;;4996498;28;20495;-83
2022/03/09 12:47:14;;;;;;;1.00;1.00;;;11.20;35.50;;;;;;4995788;28;21021;-83
2022/03/09 12:49:43;;;;;;;0.50;0.40;;;11.10;35.60;;;;;;4996170;28;20440;-83
2022/03/09 12:52:11;;;;;;;1.53;1.23;;;10.90;36.10;;;;;;4996036;28;21003;-83
2022/03/09 12:54:41;;;;;;;1.73;0.50;;;10.90;35.70;;;;;;4996272;28;20441;-84
2022/03/09 12:57:10;;;;;;;2.77;1.33;;;10.80;35.80;;;;;;4996872;28;20479;-84
2022/03/09 12:59:37;;;;;;;2.70;0.87;;;10.80;35.60;;;;;;4996197;28;20445;-83